Terminal Aerodrome Forecast
Issued by NWS Lake Charles, LA

Home | Current Version | Previous Version | Text Only | Print | Product List | Glossary On
Versions: 1 2 3 4 5 6 7 8 9 10 11 12 13 14 15 16
454
FTUS44 KLCH 030016 RRA
TAFAEX
TAF
KAEX 030016Z 0300/0324 06006KT P6SM -RA FEW080 OVC100
     FM030600 09010KT P6SM -RA OVC050
     FM031400 09014G19KT 6SM -RA BR OVC025=

USA.gov is the U.S. government's official web portal to all federal, state and local government web resources and services.